sensor_id;sensor_type;location;lat;lon;timestamp;temperature;humidity
15298;DHT22;7750;48.796;9.026;2023-04-22T00:03:41;15.90;63.10
15298;DHT22;7750;48.796;9.026;2023-04-22T00:08:43;15.90;63.10
15298;DHT22;7750;48.796;9.026;2023-04-22T00:13:47;15.80;63.20
15298;DHT22;7750;48.796;9.026;2023-04-22T00:18:48;15.80;63.40
15298;DHT22;7750;48.796;9.026;2023-04-22T00:23:49;15.80;63.80
15298;DHT22;7750;48.796;9.026;2023-04-22T00:28:50;15.70;63.80
15298;DHT22;7750;48.796;9.026;2023-04-22T00:33:50;15.70;63.90
15298;DHT22;7750;48.796;9.026;2023-04-22T00:38:51;15.60;64.00
15298;DHT22;7750;48.796;9.026;2023-04-22T00:43:52;15.60;64.10
15298;DHT22;7750;48.796;9.026;2023-04-22T00:48:53;15.60;64.20
15298;DHT22;7750;48.796;9.026;2023-04-22T00:53:54;15.50;64.20
15298;DHT22;7750;48.796;9.026;2023-04-22T00:58:55;15.50;64.30
15298;DHT22;7750;48.796;9.026;2023-04-22T01:03:56;15.50;64.50
15298;DHT22;7750;48.796;9.026;2023-04-22T01:08:57;15.40;64.50
15298;DHT22;7750;48.796;9.026;2023-04-22T01:13:58;15.40;64.80
15298;DHT22;7750;48.796;9.026;2023-04-22T01:18:59;15.40;64.90
15298;DHT22;7750;48.796;9.026;2023-04-22T01:24:00;15.30;65.10
15298;DHT22;7750;48.796;9.026;2023-04-22T01:29:02;15.30;65.30
15298;DHT22;7750;48.796;9.026;2023-04-22T01:34:03;15.20;65.40
15298;DHT22;7750;48.796;9.026;2023-04-22T01:39:04;15.20;65.40
15298;DHT22;7750;48.796;9.026;2023-04-22T01:44:04;15.20;65.40
15298;DHT22;7750;48.796;9.026;2023-04-22T01:49:05;15.20;65.50
15298;DHT22;7750;48.796;9.026;2023-04-22T01:54:06;15.10;65.70
15298;DHT22;7750;48.796;9.026;2023-04-22T01:59:07;15.10;65.70
15298;DHT22;7750;48.796;9.026;2023-04-22T02:04:08;15.00;65.80
15298;DHT22;7750;48.796;9.026;2023-04-22T02:09:09;15.00;65.90
15298;DHT22;7750;48.796;9.026;2023-04-22T02:14:09;14.90;65.90
15298;DHT22;7750;48.796;9.026;2023-04-22T02:19:10;14.90;66.10
15298;DHT22;7750;48.796;9.026;2023-04-22T02:24:11;14.80;66.30
15298;DHT22;7750;48.796;9.026;2023-04-22T02:29:12;14.80;66.30
15298;DHT22;7750;48.796;9.026;2023-04-22T02:34:12;14.80;66.30
15298;DHT22;7750;48.796;9.026;2023-04-22T02:39:13;14.80;66.30
15298;DHT22;7750;48.796;9.026;2023-04-22T02:44:14;14.80;66.30
15298;DHT22;7750;48.796;9.026;2023-04-22T02:49:14;14.70;66.20
15298;DHT22;7750;48.796;9.026;2023-04-22T02:54:15;14.70;66.20
15298;DHT22;7750;48.796;9.026;2023-04-22T02:59:16;14.70;66.10
15298;DHT22;7750;48.796;9.026;2023-04-22T03:04:16;14.70;66.00
15298;DHT22;7750;48.796;9.026;2023-04-22T03:09:20;14.60;65.70
15298;DHT22;7750;48.796;9.026;2023-04-22T03:14:23;14.60;65.80
15298;DHT22;7750;48.796;9.026;2023-04-22T03:19:24;14.60;66.00
15298;DHT22;7750;48.796;9.026;2023-04-22T03:24:25;14.60;66.00
15298;DHT22;7750;48.796;9.026;2023-04-22T03:29:26;14.50;66.10
15298;DHT22;7750;48.796;9.026;2023-04-22T03:34:26;14.60;66.40
15298;DHT22;7750;48.796;9.026;2023-04-22T03:39:29;14.50;66.40
15298;DHT22;7750;48.796;9.026;2023-04-22T03:44:32;14.50;66.50
15298;DHT22;7750;48.796;9.026;2023-04-22T03:49:42;14.40;66.60
15298;DHT22;7750;48.796;9.026;2023-04-22T03:54:42;14.40;66.80
15298;DHT22;7750;48.796;9.026;2023-04-22T03:59:43;14.40;66.90
15298;DHT22;7750;48.796;9.026;2023-04-22T04:04:52;14.30;66.90
15298;DHT22;7750;48.796;9.026;2023-04-22T04:09:55;14.30;66.70
15298;DHT22;7750;48.796;9.026;2023-04-22T04:14:56;14.30;66.60
15298;DHT22;7750;48.796;9.026;2023-04-22T04:19:57;14.30;66.60
15298;DHT22;7750;48.796;9.026;2023-04-22T04:24:57;14.40;66.80
15298;DHT22;7750;48.796;9.026;2023-04-22T04:30:00;14.40;66.70
15298;DHT22;7750;48.796;9.026;2023-04-22T04:35:03;14.50;67.00
15298;DHT22;7750;48.796;9.026;2023-04-22T04:40:06;14.50;67.00
15298;DHT22;7750;48.796;9.026;2023-04-22T04:51:01;14.50;67.40
15298;DHT22;7750;48.796;9.026;2023-04-22T04:56:07;14.50;67.10
15298;DHT22;7750;48.796;9.026;2023-04-22T05:01:10;14.40;67.00
15298;DHT22;7750;48.796;9.026;2023-04-22T05:06:18;14.50;67.40
15298;DHT22;7750;48.796;9.026;2023-04-22T05:11:24;14.50;67.50
15298;DHT22;7750;48.796;9.026;2023-04-22T05:16:54;14.50;67.80
15298;DHT22;7750;48.796;9.026;2023-04-22T05:21:57;14.50;68.00
15298;DHT22;7750;48.796;9.026;2023-04-22T05:26:58;14.50;68.10
15298;DHT22;7750;48.796;9.026;2023-04-22T05:31:59;14.50;68.20
15298;DHT22;7750;48.796;9.026;2023-04-22T05:37:01;14.50;68.20
15298;DHT22;7750;48.796;9.026;2023-04-22T05:42:02;14.50;68.10
15298;DHT22;7750;48.796;9.026;2023-04-22T05:47:05;14.40;68.10
15298;DHT22;7750;48.796;9.026;2023-04-22T05:52:10;14.40;68.20
15298;DHT22;7750;48.796;9.026;2023-04-22T05:57:13;14.50;68.80
15298;DHT22;7750;48.796;9.026;2023-04-22T06:02:17;14.60;69.00
15298;DHT22;7750;48.796;9.026;2023-04-22T06:07:52;14.80;69.10
15298;DHT22;7750;48.796;9.026;2023-04-22T06:12:53;15.10;69.00
15298;DHT22;7750;48.796;9.026;2023-04-22T06:17:54;15.20;68.80
15298;DHT22;7750;48.796;9.026;2023-04-22T06:22:59;15.50;68.90
15298;DHT22;7750;48.796;9.026;2023-04-22T06:28:00;15.70;69.10
15298;DHT22;7750;48.796;9.026;2023-04-22T06:33:07;15.90;68.60
15298;DHT22;7750;48.796;9.026;2023-04-22T06:38:15;16.00;68.50
15298;DHT22;7750;48.796;9.026;2023-04-22T06:43:31;16.10;68.20
15298;DHT22;7750;48.796;9.026;2023-04-22T06:54:11;16.40;67.90
15298;DHT22;7750;48.796;9.026;2023-04-22T06:59:12;16.50;68.10
15298;DHT22;7750;48.796;9.026;2023-04-22T07:04:12;16.60;67.90
15298;DHT22;7750;48.796;9.026;2023-04-22T07:09:16;16.70;67.50
15298;DHT22;7750;48.796;9.026;2023-04-22T07:14:24;16.80;67.00
15298;DHT22;7750;48.796;9.026;2023-04-22T07:30:16;17.10;66.90
15298;DHT22;7750;48.796;9.026;2023-04-22T07:41:05;17.50;66.60
15298;DHT22;7750;48.796;9.026;2023-04-22T07:46:11;17.70;65.00
15298;DHT22;7750;48.796;9.026;2023-04-22T07:51:28;17.80;64.60
15298;DHT22;7750;48.796;9.026;2023-04-22T07:56:42;17.90;64.40
15298;DHT22;7750;48.796;9.026;2023-04-22T08:01:54;18.00;64.50
15298;DHT22;7750;48.796;9.026;2023-04-22T08:07:02;18.10;64.20
15298;DHT22;7750;48.796;9.026;2023-04-22T08:12:05;18.20;63.20
15298;DHT22;7750;48.796;9.026;2023-04-22T08:23:10;18.40;62.60
15298;DHT22;7750;48.796;9.026;2023-04-22T08:28:29;18.50;63.00
15298;DHT22;7750;48.796;9.026;2023-04-22T08:33:30;18.80;61.90
15298;DHT22;7750;48.796;9.026;2023-04-22T08:38:31;19.30;63.20
15298;DHT22;7750;48.796;9.026;2023-04-22T08:43:34;19.80;62.60
15298;DHT22;7750;48.796;9.026;2023-04-22T08:48:55;20.10;61.40
15298;DHT22;7750;48.796;9.026;2023-04-22T08:54:08;20.50;58.60
15298;DHT22;7750;48.796;9.026;2023-04-22T08:59:10;20.60;58.20
15298;DHT22;7750;48.796;9.026;2023-04-22T09:04:13;20.80;57.60
15298;DHT22;7750;48.796;9.026;2023-04-22T09:19:38;21.30;56.70
15298;DHT22;7750;48.796;9.026;2023-04-22T09:25:37;21.50;54.70
15298;DHT22;7750;48.796;9.026;2023-04-22T09:30:38;21.70;53.50
15298;DHT22;7750;48.796;9.026;2023-04-22T09:35:40;21.80;53.90
15298;DHT22;7750;48.796;9.026;2023-04-22T09:40:42;22.40;50.70
15298;DHT22;7750;48.796;9.026;2023-04-22T09:45:44;22.30;51.60
15298;DHT22;7750;48.796;9.026;2023-04-22T09:50:47;22.40;52.00
15298;DHT22;7750;48.796;9.026;2023-04-22T09:55:51;22.60;51.80
15298;DHT22;7750;48.796;9.026;2023-04-22T10:00:55;22.70;51.60
15298;DHT22;7750;48.796;9.026;2023-04-22T10:05:57;22.90;48.50
15298;DHT22;7750;48.796;9.026;2023-04-22T10:10:58;23.10;50.70
15298;DHT22;7750;48.796;9.026;2023-04-22T10:15:59;23.20;49.60
15298;DHT22;7750;48.796;9.026;2023-04-22T10:21:00;23.40;48.40
15298;DHT22;7750;48.796;9.026;2023-04-22T10:26:04;23.60;46.30
15298;DHT22;7750;48.796;9.026;2023-04-22T10:31:05;23.80;46.30
15298;DHT22;7750;48.796;9.026;2023-04-22T10:41:14;24.10;46.10
15298;DHT22;7750;48.796;9.026;2023-04-22T10:57:07;24.60;45.20
15298;DHT22;7750;48.796;9.026;2023-04-22T11:02:11;24.70;44.00
15298;DHT22;7750;48.796;9.026;2023-04-22T11:17:36;25.10;43.60
15298;DHT22;7750;48.796;9.026;2023-04-22T11:22:40;25.20;43.20
15298;DHT22;7750;48.796;9.026;2023-04-22T11:27:42;25.40;43.50
15298;DHT22;7750;48.796;9.026;2023-04-22T11:32:48;25.50;43.00
15298;DHT22;7750;48.796;9.026;2023-04-22T11:38:08;25.70;42.70
15298;DHT22;7750;48.796;9.026;2023-04-22T11:43:09;25.80;41.30
15298;DHT22;7750;48.796;9.026;2023-04-22T11:48:10;25.80;42.90
15298;DHT22;7750;48.796;9.026;2023-04-22T11:53:15;25.80;41.90
15298;DHT22;7750;48.796;9.026;2023-04-22T11:58:24;25.90;41.30
15298;DHT22;7750;48.796;9.026;2023-04-22T12:03:29;25.90;41.60
15298;DHT22;7750;48.796;9.026;2023-04-22T12:08:33;26.00;43.10
15298;DHT22;7750;48.796;9.026;2023-04-22T12:18:39;26.20;42.50
15298;DHT22;7750;48.796;9.026;2023-04-22T12:29:01;26.60;41.70
15298;DHT22;7750;48.796;9.026;2023-04-22T12:34:02;26.60;41.10
15298;DHT22;7750;48.796;9.026;2023-04-22T12:39:03;26.70;40.50
15298;DHT22;7750;48.796;9.026;2023-04-22T12:44:04;26.70;39.70
15298;DHT22;7750;48.796;9.026;2023-04-22T12:49:08;26.70;39.60
15298;DHT22;7750;48.796;9.026;2023-04-22T12:54:35;26.50;38.80
15298;DHT22;7750;48.796;9.026;2023-04-22T12:59:38;26.30;38.00
15298;DHT22;7750;48.796;9.026;2023-04-22T13:04:42;26.10;39.40
15298;DHT22;7750;48.796;9.026;2023-04-22T13:09:51;25.90;39.80
15298;DHT22;7750;48.796;9.026;2023-04-22T13:15:02;25.80;40.10
15298;DHT22;7750;48.796;9.026;2023-04-22T13:20:23;25.70;40.70
15298;DHT22;7750;48.796;9.026;2023-04-22T13:25:26;25.50;41.90
15298;DHT22;7750;48.796;9.026;2023-04-22T13:36:00;25.40;42.80
15298;DHT22;7750;48.796;9.026;2023-04-22T13:41:00;25.40;43.30
15298;DHT22;7750;48.796;9.026;2023-04-22T13:46:08;25.30;43.20
15298;DHT22;7750;48.796;9.026;2023-04-22T13:51:09;25.20;44.40
15298;DHT22;7750;48.796;9.026;2023-04-22T13:56:10;25.20;43.90
15298;DHT22;7750;48.796;9.026;2023-04-22T14:01:24;25.10;42.40
15298;DHT22;7750;48.796;9.026;2023-04-22T14:06:59;25.00;42.00
15298;DHT22;7750;48.796;9.026;2023-04-22T14:12:07;25.00;41.30
15298;DHT22;7750;48.796;9.026;2023-04-22T14:17:09;24.80;42.10
15298;DHT22;7750;48.796;9.026;2023-04-22T14:22:13;24.70;41.80
15298;DHT22;7750;48.796;9.026;2023-04-22T14:27:21;24.50;41.80
15298;DHT22;7750;48.796;9.026;2023-04-22T14:32:22;24.50;41.80
15298;DHT22;7750;48.796;9.026;2023-04-22T14:37:42;24.30;42.40
15298;DHT22;7750;48.796;9.026;2023-04-22T14:42:50;24.30;43.00
15298;DHT22;7750;48.796;9.026;2023-04-22T14:47:57;24.30;43.10
15298;DHT22;7750;48.796;9.026;2023-04-22T14:52:58;24.30;43.20
15298;DHT22;7750;48.796;9.026;2023-04-22T14:57:59;24.30;43.20
15298;DHT22;7750;48.796;9.026;2023-04-22T15:03:00;24.20;42.60
15298;DHT22;7750;48.796;9.026;2023-04-22T15:08:03;24.20;42.60
15298;DHT22;7750;48.796;9.026;2023-04-22T15:13:12;24.00;42.80
15298;DHT22;7750;48.796;9.026;2023-04-22T15:18:27;23.90;43.00
15298;DHT22;7750;48.796;9.026;2023-04-22T15:28:43;23.70;43.50
15298;DHT22;7750;48.796;9.026;2023-04-22T15:33:43;23.70;43.80
15298;DHT22;7750;48.796;9.026;2023-04-22T15:38:44;23.60;44.00
15298;DHT22;7750;48.796;9.026;2023-04-22T15:43:54;23.60;43.90
15298;DHT22;7750;48.796;9.026;2023-04-22T15:49:08;23.60;44.10
15298;DHT22;7750;48.796;9.026;2023-04-22T15:54:09;23.60;44.30
15298;DHT22;7750;48.796;9.026;2023-04-22T15:59:09;23.50;44.30
15298;DHT22;7750;48.796;9.026;2023-04-22T16:04:10;23.50;44.50
15298;DHT22;7750;48.796;9.026;2023-04-22T16:15:04;23.50;44.50
15298;DHT22;7750;48.796;9.026;2023-04-22T16:20:06;23.40;44.70
15298;DHT22;7750;48.796;9.026;2023-04-22T16:25:17;23.40;44.90
15298;DHT22;7750;48.796;9.026;2023-04-22T16:30:22;23.40;44.90
15298;DHT22;7750;48.796;9.026;2023-04-22T16:35:25;23.30;44.80
15298;DHT22;7750;48.796;9.026;2023-04-22T16:40:26;23.20;44.80
15298;DHT22;7750;48.796;9.026;2023-04-22T16:45:39;23.20;45.20
15298;DHT22;7750;48.796;9.026;2023-04-22T16:50:40;23.20;45.20
15298;DHT22;7750;48.796;9.026;2023-04-22T16:56:25;23.10;45.40
15298;DHT22;7750;48.796;9.026;2023-04-22T17:06:51;23.10;45.30
15298;DHT22;7750;48.796;9.026;2023-04-22T17:27:18;22.90;45.70
15298;DHT22;7750;48.796;9.026;2023-04-22T17:32:22;22.90;45.80
15298;DHT22;7750;48.796;9.026;2023-04-22T17:43:38;22.80;45.80
15298;DHT22;7750;48.796;9.026;2023-04-22T17:48:39;22.70;45.90
15298;DHT22;7750;48.796;9.026;2023-04-22T17:53:50;22.70;46.50
15298;DHT22;7750;48.796;9.026;2023-04-22T17:59:01;22.60;46.90
15298;DHT22;7750;48.796;9.026;2023-04-22T18:04:11;22.60;47.80
15298;DHT22;7750;48.796;9.026;2023-04-22T18:09:15;22.50;48.30
15298;DHT22;7750;48.796;9.026;2023-04-22T18:14:15;22.40;48.50
15298;DHT22;7750;48.796;9.026;2023-04-22T18:19:16;22.30;49.70
15298;DHT22;7750;48.796;9.026;2023-04-22T18:24:17;22.10;50.10
15298;DHT22;7750;48.796;9.026;2023-04-22T18:29:23;21.80;51.10
15298;DHT22;7750;48.796;9.026;2023-04-22T18:34:24;21.60;51.60
15298;DHT22;7750;48.796;9.026;2023-04-22T18:39:25;21.40;51.40
15298;DHT22;7750;48.796;9.026;2023-04-22T18:44:31;21.10;52.20
15298;DHT22;7750;48.796;9.026;2023-04-22T18:49:31;21.30;53.20
15298;DHT22;7750;48.796;9.026;2023-04-22T18:54:33;20.90;52.60
15298;DHT22;7750;48.796;9.026;2023-04-22T18:59:33;20.60;53.10
15298;DHT22;7750;48.796;9.026;2023-04-22T19:04:36;20.40;53.30
15298;DHT22;7750;48.796;9.026;2023-04-22T19:09:37;20.20;53.70
15298;DHT22;7750;48.796;9.026;2023-04-22T19:14:55;20.00;54.00
15298;DHT22;7750;48.796;9.026;2023-04-22T19:20:30;19.90;55.20
15298;DHT22;7750;48.796;9.026;2023-04-22T19:25:41;19.80;55.70
15298;DHT22;7750;48.796;9.026;2023-04-22T19:30:46;19.60;55.90
15298;DHT22;7750;48.796;9.026;2023-04-22T19:35:55;19.50;55.60
15298;DHT22;7750;48.796;9.026;2023-04-22T19:40:56;19.50;56.30
15298;DHT22;7750;48.796;9.026;2023-04-22T19:46:29;19.40;55.90
15298;DHT22;7750;48.796;9.026;2023-04-22T19:51:40;19.30;55.90
15298;DHT22;7750;48.796;9.026;2023-04-22T19:56:42;19.20;55.90
15298;DHT22;7750;48.796;9.026;2023-04-22T20:01:47;19.20;55.80
15298;DHT22;7750;48.796;9.026;2023-04-22T20:06:49;19.20;56.00
15298;DHT22;7750;48.796;9.026;2023-04-22T20:11:55;19.10;55.70
15298;DHT22;7750;48.796;9.026;2023-04-22T20:16:56;19.10;55.50
15298;DHT22;7750;48.796;9.026;2023-04-22T20:22:05;19.10;55.80
15298;DHT22;7750;48.796;9.026;2023-04-22T20:27:07;19.10;55.40
15298;DHT22;7750;48.796;9.026;2023-04-22T20:32:08;19.10;55.80
15298;DHT22;7750;48.796;9.026;2023-04-22T20:37:11;19.10;55.20
15298;DHT22;7750;48.796;9.026;2023-04-22T20:42:21;19.10;55.20
15298;DHT22;7750;48.796;9.026;2023-04-22T20:47:22;19.00;55.40
15298;DHT22;7750;48.796;9.026;2023-04-22T20:52:23;19.00;55.30
15298;DHT22;7750;48.796;9.026;2023-04-22T20:57:26;19.00;55.20
15298;DHT22;7750;48.796;9.026;2023-04-22T21:02:33;18.90;55.60
15298;DHT22;7750;48.796;9.026;2023-04-22T21:07:53;18.90;55.80
15298;DHT22;7750;48.796;9.026;2023-04-22T21:12:54;18.80;56.00
15298;DHT22;7750;48.796;9.026;2023-04-22T21:17:56;18.80;55.80
15298;DHT22;7750;48.796;9.026;2023-04-22T21:23:02;18.80;56.10
15298;DHT22;7750;48.796;9.026;2023-04-22T21:28:08;18.70;56.60
15298;DHT22;7750;48.796;9.026;2023-04-22T21:33:19;18.70;56.30
15298;DHT22;7750;48.796;9.026;2023-04-22T21:38:37;18.70;56.60
15298;DHT22;7750;48.796;9.026;2023-04-22T21:43:38;18.60;56.90
15298;DHT22;7750;48.796;9.026;2023-04-22T21:48:45;18.50;56.80
15298;DHT22;7750;48.796;9.026;2023-04-22T21:53:46;18.50;56.90
15298;DHT22;7750;48.796;9.026;2023-04-22T21:58:55;18.50;56.80
15298;DHT22;7750;48.796;9.026;2023-04-22T22:04:04;18.40;57.00
15298;DHT22;7750;48.796;9.026;2023-04-22T22:09:05;18.40;56.80
15298;DHT22;7750;48.796;9.026;2023-04-22T22:14:08;18.40;57.00
15298;DHT22;7750;48.796;9.026;2023-04-22T22:19:15;18.40;57.40
15298;DHT22;7750;48.796;9.026;2023-04-22T22:24:16;18.30;57.40
15298;DHT22;7750;48.796;9.026;2023-04-22T22:29:19;18.30;57.50
15298;DHT22;7750;48.796;9.026;2023-04-22T22:34:26;18.30;57.90
15298;DHT22;7750;48.796;9.026;2023-04-22T22:39:28;18.20;58.00
15298;DHT22;7750;48.796;9.026;2023-04-22T22:44:32;18.20;57.90
15298;DHT22;7750;48.796;9.026;2023-04-22T22:49:33;18.20;58.30
15298;DHT22;7750;48.796;9.026;2023-04-22T22:54:44;18.10;58.10
15298;DHT22;7750;48.796;9.026;2023-04-22T22:59:50;18.10;58.20
15298;DHT22;7750;48.796;9.026;2023-04-22T23:04:51;18.00;58.10
15298;DHT22;7750;48.796;9.026;2023-04-22T23:09:53;18.00;58.20
15298;DHT22;7750;48.796;9.026;2023-04-22T23:14:53;18.00;58.30
15298;DHT22;7750;48.796;9.026;2023-04-22T23:19:54;18.00;58.40
15298;DHT22;7750;48.796;9.026;2023-04-22T23:24:55;17.90;58.40
15298;DHT22;7750;48.796;9.026;2023-04-22T23:29:56;17.90;58.40
15298;DHT22;7750;48.796;9.026;2023-04-22T23:34:59;17.90;58.40
15298;DHT22;7750;48.796;9.026;2023-04-22T23:40:02;17.90;58.80
15298;DHT22;7750;48.796;9.026;2023-04-22T23:45:04;17.90;58.90
15298;DHT22;7750;48.796;9.026;2023-04-22T23:50:05;17.80;59.10
15298;DHT22;7750;48.796;9.026;2023-04-22T23:55:10;17.80;59.30
